createdAt,value
2023-05-12T00:04:33.770Z,10.85
2023-05-12T00:14:40.312Z,10.66
2023-05-12T00:24:46.802Z,10.43
2023-05-12T00:34:54.780Z,10.13
2023-05-12T00:45:01.275Z,9.96
2023-05-12T00:55:08.446Z,9.76
2023-05-12T01:05:15.356Z,9.68
2023-05-12T01:15:21.870Z,9.41
2023-05-12T01:25:30.464Z,9.43
2023-05-12T01:35:37.039Z,9.39
2023-05-12T01:45:43.521Z,9.35
2023-05-12T01:55:49.984Z,9.34
2023-05-12T02:05:56.546Z,9.03
2023-05-12T02:16:03.575Z,8.53
2023-05-12T02:26:10.136Z,7.98
2023-05-12T02:36:16.641Z,8.10
2023-05-12T02:46:23.161Z,8.13
2023-05-12T02:56:31.949Z,8.29
2023-05-12T03:06:40.436Z,8.25
2023-05-12T03:16:47.030Z,8.22
2023-05-12T03:26:53.566Z,8.33
2023-05-12T03:37:00.109Z,8.57
2023-05-12T03:47:06.940Z,8.87
2023-05-12T03:57:14.183Z,9.42
2023-05-12T04:07:20.746Z,10.02
2023-05-12T04:17:27.283Z,10.50
2023-05-12T04:27:33.822Z,11.76
2023-05-12T04:37:40.355Z,12.35
2023-05-12T04:47:47.027Z,12.44
2023-05-12T04:57:53.600Z,13.30
2023-05-12T05:08:00.135Z,13.40
2023-05-12T05:18:07.408Z,13.90
2023-05-12T05:28:13.952Z,15.34
2023-05-12T05:38:20.443Z,14.34
2023-05-12T05:48:27.131Z,15.91
2023-05-12T05:58:33.624Z,16.86
2023-05-12T06:08:40.212Z,15.91
2023-05-12T06:18:46.723Z,15.52
2023-05-12T06:28:53.265Z,15.96
2023-05-12T06:39:00.395Z,16.01
2023-05-12T06:49:07.693Z,16.78
2023-05-12T06:59:14.771Z,17.56
2023-05-12T07:09:21.579Z,17.32
2023-05-12T07:19:28.152Z,18.61
2023-05-12T07:29:34.648Z,18.92
2023-05-12T07:39:41.136Z,19.00
2023-05-12T07:49:48.166Z,20.22
2023-05-12T07:59:54.755Z,21.08
2023-05-12T08:10:01.279Z,19.27
2023-05-12T08:20:08.430Z,20.11
2023-05-12T08:30:15.215Z,20.77
2023-05-12T08:40:23.535Z,20.75
2023-05-12T08:50:31.301Z,20.77
2023-05-12T09:00:40.645Z,21.14
2023-05-12T09:10:48.412Z,22.15
2023-05-12T09:20:54.908Z,21.23
2023-05-12T09:31:01.372Z,20.85
2023-05-12T09:41:07.882Z,20.93
2023-05-12T09:51:19.456Z,20.82
2023-05-12T10:01:27.328Z,20.79
2023-05-12T10:11:34.026Z,21.09
2023-05-12T10:21:41.115Z,20.80
2023-05-12T10:31:48.311Z,20.25
2023-05-12T10:42:03.246Z,21.05
2023-05-12T10:52:12.636Z,22.02
2023-05-12T11:02:22.069Z,20.58
2023-05-12T11:12:31.197Z,20.59
2023-05-12T11:22:37.946Z,19.98
2023-05-12T11:32:45.100Z,20.03
2023-05-12T11:42:57.198Z,20.42
2023-05-12T11:53:03.741Z,19.95
2023-05-12T12:03:15.757Z,19.44
2023-05-12T12:13:26.380Z,20.54
2023-05-12T12:23:43.861Z,19.53
2023-05-12T12:33:54.196Z,19.84
2023-05-12T12:44:00.886Z,19.37
2023-05-12T12:54:07.364Z,20.31
2023-05-12T13:04:13.937Z,19.25
2023-05-12T13:14:20.706Z,18.98
2023-05-12T13:24:27.196Z,19.08
2023-05-12T13:34:33.633Z,19.69
2023-05-12T13:44:40.300Z,20.77
2023-05-12T13:54:46.812Z,20.16
2023-05-12T14:04:53.439Z,19.58
2023-05-12T14:15:11.167Z,19.76
2023-05-12T14:25:28.341Z,20.49
2023-05-12T14:35:34.813Z,19.49
2023-05-12T14:45:41.282Z,19.19
2023-05-12T14:55:48.572Z,19.04
2023-05-12T15:06:05.609Z,18.85
2023-05-12T15:16:13.718Z,19.02
2023-05-12T15:26:33.205Z,19.14
2023-05-12T15:36:41.265Z,18.42
2023-05-12T15:46:48.035Z,18.22
2023-05-12T15:56:54.664Z,18.56
2023-05-12T16:07:01.174Z,18.29
2023-05-12T16:17:07.755Z,18.21
2023-05-12T16:27:14.359Z,18.13
2023-05-12T16:37:20.966Z,17.91
2023-05-12T16:47:27.516Z,17.85
2023-05-12T16:57:34.070Z,17.61
2023-05-12T17:07:40.598Z,17.57
2023-05-12T17:17:47.175Z,17.54
2023-05-12T17:27:53.746Z,17.31
2023-05-12T17:38:00.269Z,16.99
2023-05-12T17:48:07.690Z,16.76
2023-05-12T17:58:13.288Z,16.54
2023-05-12T18:08:20.172Z,16.41
2023-05-12T18:18:27.608Z,16.10
2023-05-12T18:28:34.174Z,15.91
2023-05-12T18:38:40.814Z,15.65
2023-05-12T18:48:47.380Z,15.50
2023-05-12T18:58:53.908Z,15.17
2023-05-12T19:09:00.400Z,14.92
2023-05-12T19:19:07.403Z,14.71
2023-05-12T19:29:15.184Z,14.40
2023-05-12T19:39:21.664Z,14.34
2023-05-12T19:49:28.354Z,14.26
2023-05-12T19:59:34.859Z,14.31
2023-05-12T20:09:41.526Z,14.17
2023-05-12T20:19:48.108Z,14.08
2023-05-12T20:29:54.677Z,14.02
2023-05-12T20:40:01.197Z,14.01
2023-05-12T20:50:09.501Z,13.93
2023-05-12T21:00:16.312Z,13.79
2023-05-12T21:10:23.245Z,13.67
2023-05-12T21:20:29.914Z,13.60
2023-05-12T21:30:38.327Z,13.45
2023-05-12T21:40:44.899Z,13.47
2023-05-12T21:51:01.814Z,13.37
2023-05-12T22:01:08.432Z,13.28
2023-05-12T22:11:14.945Z,13.07
2023-05-12T22:21:21.495Z,12.87
2023-05-12T22:31:28.057Z,12.90
2023-05-12T22:41:34.526Z,12.79
2023-05-12T22:51:41.244Z,12.57
2023-05-12T23:01:48.186Z,12.32
2023-05-12T23:11:54.746Z,12.25
2023-05-12T23:22:01.355Z,12.21
2023-05-12T23:32:08.144Z,12.05
2023-05-12T23:42:14.752Z,11.94
2023-05-12T23:52:21.272Z,11.51
